Franklin, Louisiana
Current Conditions -  °F | °C
As of 6:35 PM on Saturday 20 Dec 2014 (Local Time) from KPTN Reporting Station
Overcast Overcast  
Wind Chill: 52°   Ceiling: 600
Heat Index: 52°   Visibility: 10mi
Dew Point: 46°   Wind: 12mph
Humidity: 82%   Direction: 30°NNE
Pressure: 30.14"   Gusts: NA
Location:  29.79°N, 91.5°W
Report Text: KPTN 210035Z AUTO 03010KT 10SM OVC006 11/08 A3014 RMK AO1
Loading
Personal Weather Stations






























Interactive Weather Map New forecast layout! Learn more

10-Day Weather Forecast

Advertisements
Track Severe Weather on mobile